Time;durP1;ratioP1;P1;durP2;ratioP2;P2;SDS_P1;SDS_P2;PMS_P1;PMS_P2;Temp;Humidity;BMP_temperature;BMP_pressure;BME280_temperature;BME280_humidity;BME280_pressure;Samples;Min_cycle;Max_cycle;Signal;HPM_P1;HPM_P2
2024/02/05 00:01:52;;;;;;;0.60;0.60;;;9.80;99.90;;;;;;5035797;28;20541;-59
2024/02/05 00:04:19;;;;;;;1.57;0.70;;;9.90;99.90;;;;;;5040045;28;20457;-59
2024/02/05 00:06:46;;;;;;;0.50;0.50;;;9.90;99.90;;;;;;5038292;28;20453;-60
2024/02/05 00:09:13;;;;;;;0.67;0.67;;;9.90;99.90;;;;;;5043195;28;20488;-60
2024/02/05 00:11:40;;;;;;;0.80;0.80;;;9.90;99.90;;;;;;5037307;28;20446;-57
2024/02/05 00:14:06;;;;;;;3.90;0.73;;;9.90;99.90;;;;;;5035570;28;20454;-59
2024/02/05 00:16:33;;;;;;;0.70;0.70;;;9.90;99.90;;;;;;5028110;28;20446;-60
2024/02/05 00:19:01;;;;;;;0.70;0.70;;;9.80;99.90;;;;;;5041104;28;20464;-57
2024/02/05 00:21:29;;;;;;;4.27;0.70;;;9.80;99.90;;;;;;5038836;28;20460;-59
2024/02/05 00:23:56;;;;;;;0.60;0.60;;;9.90;99.90;;;;;;5031759;28;20519;-60
2024/02/05 00:26:23;;;;;;;0.60;0.60;;;9.80;99.90;;;;;;5040098;28;20817;-60
2024/02/05 00:28:50;;;;;;;0.97;0.50;;;9.80;99.90;;;;;;5028250;28;20500;-60
2024/02/05 00:31:16;;;;;;;0.67;0.67;;;9.80;99.90;;;;;;5033512;28;20456;-59
2024/02/05 00:33:44;;;;;;;1.00;0.87;;;9.90;99.90;;;;;;5036135;28;20456;-60
2024/02/05 00:36:12;;;;;;;0.52;0.52;;;9.80;99.90;;;;;;5039794;28;20827;-59
2024/02/05 00:38:39;;;;;;;0.63;0.63;;;9.90;99.90;;;;;;5041009;28;20310;-61
2024/02/05 00:41:08;;;;;;;0.60;0.60;;;9.90;99.90;;;;;;5034087;28;20612;-60
2024/02/05 00:43:35;;;;;;;0.57;0.57;;;9.90;99.90;;;;;;5033655;28;20454;-57
2024/02/05 00:46:01;;;;;;;1.10;1.10;;;9.90;99.90;;;;;;5046568;28;20510;-60
2024/02/05 00:48:29;;;;;;;0.43;0.43;;;9.90;99.90;;;;;;5038122;28;20548;-61
2024/02/05 00:50:56;;;;;;;0.80;0.80;;;9.80;99.90;;;;;;5039633;28;20445;-61
2024/02/05 00:53:24;;;;;;;0.90;0.70;;;9.80;99.90;;;;;;5032953;28;20442;-59
2024/02/05 00:55:51;;;;;;;0.70;0.70;;;9.90;99.90;;;;;;5044316;28;20536;-59
2024/02/05 00:58:18;;;;;;;0.60;0.60;;;9.90;99.90;;;;;;5032017;28;20466;-59
2024/02/05 01:00:45;;;;;;;1.93;1.63;;;9.90;99.90;;;;;;5027737;28;20453;-60
2024/02/05 01:03:12;;;;;;;0.77;0.77;;;9.90;99.90;;;;;;5039999;28;20449;-59
2024/02/05 01:05:38;;;;;;;0.57;0.57;;;9.90;99.90;;;;;;5042910;28;20908;-59
2024/02/05 01:08:06;;;;;;;0.50;0.40;;;9.80;99.90;;;;;;5040286;28;20470;-58
2024/02/05 01:10:34;;;;;;;0.53;0.53;;;9.80;99.90;;;;;;5035404;28;20489;-60
2024/02/05 01:13:01;;;;;;;0.50;0.50;;;9.90;99.90;;;;;;5042191;28;20449;-60
2024/02/05 01:15:28;;;;;;;0.63;0.63;;;9.80;99.90;;;;;;5037024;28;20444;-60
2024/02/05 01:17:55;;;;;;;0.60;0.60;;;9.90;99.90;;;;;;5041913;28;20501;-60
2024/02/05 01:20:22;;;;;;;0.50;0.50;;;9.90;99.90;;;;;;5044586;28;20495;-58
2024/02/05 01:22:49;;;;;;;0.60;0.60;;;9.80;99.90;;;;;;5027791;28;20453;-60
2024/02/05 01:25:16;;;;;;;0.60;0.60;;;9.80;99.90;;;;;;5040346;28;20453;-60
2024/02/05 01:27:45;;;;;;;0.40;0.40;;;9.80;99.90;;;;;;5038940;28;20472;-60
2024/02/05 01:30:13;;;;;;;0.40;0.40;;;9.80;99.90;;;;;;5042730;28;20493;-60
2024/02/05 01:32:40;;;;;;;0.50;0.50;;;9.90;99.90;;;;;;5027532;28;20540;-60
2024/02/05 01:35:10;;;;;;;0.60;0.60;;;9.90;99.90;;;;;;5037774;28;20454;-60
2024/02/05 01:37:36;;;;;;;0.50;0.50;;;9.90;99.90;;;;;;5043838;28;20507;-60
2024/02/05 01:40:09;;;;;;;0.40;0.40;;;9.90;99.90;;;;;;5038908;28;20466;-60
2024/02/05 01:42:36;;;;;;;0.30;0.30;;;9.90;99.90;;;;;;5033498;28;20504;-59
2024/02/05 01:45:06;;;;;;;0.40;0.40;;;9.90;99.90;;;;;;5029211;28;20450;-57
2024/02/05 01:47:33;;;;;;;0.50;0.50;;;9.90;99.90;;;;;;5045079;28;20806;-58
2024/02/05 01:50:00;;;;;;;0.60;0.60;;;9.90;99.90;;;;;;5043531;28;21310;-59
2024/02/05 01:52:29;;;;;;;0.80;0.80;;;9.90;99.90;;;;;;5038804;28;20545;-59
2024/02/05 01:54:56;;;;;;;0.73;0.73;;;9.90;99.90;;;;;;5035052;28;20835;-61
2024/02/05 01:57:23;;;;;;;0.47;0.47;;;9.90;99.90;;;;;;5046229;28;20445;-56
2024/02/05 01:59:50;;;;;;;0.50;0.50;;;9.90;99.90;;;;;;5047210;28;20466;-60
2024/02/05 02:02:19;;;;;;;0.63;0.63;;;9.90;99.90;;;;;;5037858;28;20446;-60
2024/02/05 02:04:46;;;;;;;1.23;0.40;;;9.90;99.90;;;;;;5033152;28;20754;-57
2024/02/05 02:07:15;;;;;;;0.53;0.53;;;9.90;99.90;;;;;;5043636;28;21276;-60
2024/02/05 02:09:42;;;;;;;1.40;0.67;;;10.00;99.90;;;;;;5039581;28;20503;-61
2024/02/05 02:12:10;;;;;;;0.63;0.63;;;10.00;99.90;;;;;;5030223;28;20456;-60
2024/02/05 02:14:37;;;;;;;0.50;0.50;;;10.00;99.90;;;;;;5041638;28;20549;-59
2024/02/05 02:17:04;;;;;;;0.50;0.50;;;10.00;99.90;;;;;;5048063;28;20820;-59
2024/02/05 02:19:41;;;;;;;0.50;0.50;;;10.00;99.90;;;;;;5030481;28;20480;-59
2024/02/05 02:22:20;;;;;;;0.70;0.47;;;10.00;99.90;;;;;;5037138;28;20545;-59
2024/02/05 02:24:48;;;;;;;0.50;0.50;;;10.00;99.90;;;;;;5030794;28;20540;-60
2024/02/05 02:27:15;;;;;;;1.20;0.70;;;10.00;99.90;;;;;;5040332;28;20450;-60
2024/02/05 02:29:42;;;;;;;0.63;0.57;;;10.10;99.90;;;;;;5030243;28;21087;-60
2024/02/05 02:32:20;;;;;;;1.40;0.40;;;10.10;99.90;;;;;;5038516;28;20454;-59
2024/02/05 02:34:49;;;;;;;0.60;0.60;;;10.10;99.90;;;;;;5046153;28;20459;-61
2024/02/05 02:37:17;;;;;;;0.50;0.40;;;10.10;99.90;;;;;;5038440;28;20535;-60
2024/02/05 02:39:55;;;;;;;0.50;0.40;;;10.10;99.90;;;;;;5027045;28;20476;-59
2024/02/05 02:42:24;;;;;;;0.43;0.40;;;10.10;99.90;;;;;;5025416;28;21032;-60
2024/02/05 02:44:52;;;;;;;1.90;0.50;;;10.10;99.90;;;;;;5026090;28;20914;-60
2024/02/05 02:47:19;;;;;;;0.50;0.50;;;10.10;99.90;;;;;;5030162;28;20448;-59
2024/02/05 02:49:46;;;;;;;0.37;0.37;;;10.10;99.90;;;;;;5026610;28;20485;-60
2024/02/05 02:52:13;;;;;;;0.70;0.60;;;10.10;99.90;;;;;;5029742;28;20975;-59
2024/02/05 02:54:39;;;;;;;0.40;0.40;;;10.10;99.90;;;;;;5036399;28;20445;-59
2024/02/05 02:57:07;;;;;;;0.60;0.60;;;10.10;99.90;;;;;;5043421;28;20445;-60
2024/02/05 02:59:34;;;;;;;0.37;0.37;;;10.10;99.90;;;;;;5031488;28;20472;-61
2024/02/05 03:02:01;;;;;;;0.83;0.83;;;10.10;99.90;;;;;;5033557;28;20527;-60
2024/02/05 03:04:28;;;;;;;0.30;0.30;;;10.10;99.90;;;;;;5032112;28;20487;-59
2024/02/05 03:06:55;;;;;;;0.50;0.50;;;10.10;99.90;;;;;;5033200;28;20897;-61
2024/02/05 03:09:23;;;;;;;0.50;0.50;;;10.10;99.90;;;;;;5041341;28;20493;-60
2024/02/05 03:11:50;;;;;;;0.63;0.40;;;10.10;99.90;;;;;;5047022;28;21034;-59
2024/02/05 03:14:18;;;;;;;0.43;0.43;;;10.10;99.90;;;;;;5039997;28;20453;-59
2024/02/05 03:16:45;;;;;;;0.60;0.60;;;10.10;99.90;;;;;;5035651;28;20472;-60
2024/02/05 03:19:12;;;;;;;0.40;0.40;;;10.10;99.90;;;;;;5035039;28;20626;-59
2024/02/05 03:21:38;;;;;;;0.60;0.60;;;10.10;99.90;;;;;;5044770;28;20453;-61
2024/02/05 03:24:06;;;;;;;0.87;0.73;;;10.10;99.90;;;;;;5028387;28;20446;-59
2024/02/05 03:26:33;;;;;;;1.07;0.50;;;10.10;99.90;;;;;;5029462;28;20457;-60
2024/02/05 03:29:00;;;;;;;0.70;0.70;;;10.10;99.90;;;;;;5044977;22;20504;-63
2024/02/05 03:31:28;;;;;;;0.43;0.43;;;10.10;99.90;;;;;;5029212;28;20971;-63
2024/02/05 03:33:55;;;;;;;1.13;0.63;;;10.10;99.90;;;;;;5029961;28;20446;-63
2024/02/05 03:36:22;;;;;;;1.03;0.67;;;10.10;99.90;;;;;;5029832;28;20834;-63
2024/02/05 03:38:49;;;;;;;0.53;0.53;;;10.10;99.90;;;;;;5029552;28;20462;-63
2024/02/05 03:41:16;;;;;;;0.77;0.53;;;10.10;99.90;;;;;;5029444;28;20456;-63
2024/02/05 03:43:43;;;;;;;0.50;0.50;;;10.10;99.90;;;;;;5029787;28;20450;-62
2024/02/05 03:46:10;;;;;;;0.53;0.50;;;10.00;99.90;;;;;;5029728;28;20469;-63
2024/02/05 03:48:38;;;;;;;0.50;0.50;;;10.10;99.90;;;;;;5029216;28;20466;-63
2024/02/05 03:51:05;;;;;;;0.73;0.60;;;10.10;99.90;;;;;;5028851;28;20493;-62
2024/02/05 03:53:32;;;;;;;0.60;0.60;;;10.10;99.90;;;;;;5029422;28;20456;-63
2024/02/05 03:55:59;;;;;;;0.57;0.50;;;10.10;99.90;;;;;;5029546;28;20848;-63
2024/02/05 03:58:25;;;;;;;0.60;0.60;;;10.10;99.90;;;;;;5029207;28;20480;-63
2024/02/05 04:00:52;;;;;;;3.23;0.80;;;10.10;99.90;;;;;;5028801;28;20456;-63
2024/02/05 04:03:19;;;;;;;0.70;0.70;;;10.10;99.90;;;;;;5029506;28;20460;-62
2024/02/05 04:05:47;;;;;;;2.33;0.80;;;10.10;99.90;;;;;;5029243;28;20885;-63
2024/02/05 04:08:14;;;;;;;0.80;0.80;;;10.10;99.90;;;;;;5028422;28;21012;-62
2024/02/05 04:10:41;;;;;;;0.80;0.80;;;10.10;99.90;;;;;;5028676;28;20493;-63
2024/02/05 04:13:08;;;;;;;0.70;0.70;;;10.00;99.90;;;;;;5029287;28;20226;-62
2024/02/05 04:15:35;;;;;;;0.87;0.70;;;10.10;99.90;;;;;;5029007;28;20611;-63
2024/02/05 04:18:02;;;;;;;0.83;0.83;;;10.00;99.90;;;;;;5028929;28;20446;-63
2024/02/05 04:20:29;;;;;;;0.80;0.80;;;10.00;99.90;;;;;;5028823;28;20449;-63
2024/02/05 04:22:57;;;;;;;0.80;0.80;;;10.00;99.90;;;;;;5028431;28;20480;-63
2024/02/05 04:25:24;;;;;;;1.93;0.97;;;10.00;99.90;;;;;;5028828;28;20454;-62
2024/02/05 04:27:51;;;;;;;1.27;0.93;;;10.00;99.90;;;;;;5029005;28;20464;-63
2024/02/05 04:30:26;;;;;;;1.43;0.80;;;10.10;99.90;;;;;;5028443;28;20660;-63
2024/02/05 04:32:53;;;;;;;4.57;1.30;;;10.10;99.90;;;;;;5028564;28;20884;-62
2024/02/05 04:35:20;;;;;;;1.43;1.10;;;10.10;99.90;;;;;;5028848;28;20489;-63
2024/02/05 04:37:46;;;;;;;0.90;0.70;;;10.10;99.90;;;;;;5029159;28;20557;-63
2024/02/05 04:40:15;;;;;;;0.87;0.70;;;10.00;99.90;;;;;;5028794;28;20992;-62
2024/02/05 04:42:42;;;;;;;2.00;1.20;;;10.00;99.90;;;;;;5028358;28;20456;-63
2024/02/05 04:45:09;;;;;;;1.20;0.70;;;10.00;99.90;;;;;;5028527;28;20976;-62
2024/02/05 04:47:36;;;;;;;0.83;0.80;;;10.10;99.90;;;;;;5025892;28;20527;-63
2024/02/05 04:50:03;;;;;;;0.60;0.60;;;10.10;99.90;;;;;;5028383;28;20499;-63
2024/02/05 04:52:30;;;;;;;1.10;0.97;;;10.10;99.90;;;;;;5028052;28;20933;-63
2024/02/05 04:54:57;;;;;;;1.60;0.90;;;10.10;99.90;;;;;;5028520;28;20449;-63
2024/02/05 04:57:25;;;;;;;1.00;1.00;;;10.10;99.90;;;;;;5028441;28;21009;-63
2024/02/05 04:59:52;;;;;;;1.27;0.97;;;10.10;99.90;;;;;;5028180;28;21042;-61
2024/02/05 05:02:19;;;;;;;1.10;1.00;;;10.10;99.90;;;;;;5028104;28;20464;-63
2024/02/05 05:04:45;;;;;;;1.07;1.07;;;10.10;99.90;;;;;;5028594;28;20843;-63
2024/02/05 05:07:12;;;;;;;2.07;1.97;;;10.10;99.90;;;;;;5028633;28;20460;-63
2024/02/05 05:09:39;;;;;;;0.80;0.80;;;10.10;99.90;;;;;;5028361;28;20980;-62
2024/02/05 05:12:07;;;;;;;1.70;1.60;;;10.10;99.90;;;;;;5027974;28;21062;-62
2024/02/05 05:14:37;;;;;;;4.47;1.33;;;10.10;99.90;;;;;;5028523;28;20454;-63
2024/02/05 05:17:04;;;;;;;1.47;1.20;;;10.00;99.90;;;;;;5028568;28;20457;-63
2024/02/05 05:19:31;;;;;;;1.80;1.50;;;10.10;99.90;;;;;;5028985;28;20562;-63
2024/02/05 05:21:58;;;;;;;2.60;1.60;;;10.10;99.90;;;;;;5031814;28;20944;-62
2024/02/05 05:24:24;;;;;;;5.10;1.40;;;10.00;99.90;;;;;;5032277;28;20453;-63
2024/02/05 05:26:51;;;;;;;1.00;1.00;;;10.10;99.90;;;;;;5032491;28;20927;-63
2024/02/05 05:29:20;;;;;;;1.97;1.17;;;10.10;99.90;;;;;;5031806;28;20477;-63
2024/02/05 05:31:48;;;;;;;1.37;1.27;;;10.10;99.90;;;;;;5031511;28;20500;-63
2024/02/05 05:34:15;;;;;;;1.30;1.20;;;10.10;99.90;;;;;;5032213;28;20456;-63
2024/02/05 05:36:41;;;;;;;1.30;1.30;;;10.10;99.90;;;;;;5031997;28;20960;-63
2024/02/05 05:39:09;;;;;;;1.13;1.03;;;10.00;99.90;;;;;;5032684;28;20474;-63
2024/02/05 05:41:36;;;;;;;2.07;1.97;;;10.10;99.90;;;;;;5031691;28;20897;-63
2024/02/05 05:44:03;;;;;;;1.40;1.30;;;10.10;99.90;;;;;;5032092;28;20453;-62
2024/02/05 05:46:30;;;;;;;2.20;1.30;;;10.10;99.90;;;;;;5032296;28;20453;-63
2024/02/05 05:48:58;;;;;;;2.53;1.80;;;10.10;99.90;;;;;;5031663;28;20473;-63
2024/02/05 05:51:25;;;;;;;1.00;1.00;;;10.10;99.90;;;;;;5031227;28;20499;-63
2024/02/05 05:53:52;;;;;;;1.60;1.50;;;10.10;99.90;;;;;;5031712;28;20459;-63
2024/02/05 05:56:19;;;;;;;1.13;1.13;;;10.10;99.90;;;;;;5031783;28;20483;-63
2024/02/05 05:58:45;;;;;;;1.70;1.20;;;10.10;99.90;;;;;;5031216;28;20469;-63
2024/02/05 06:01:12;;;;;;;4.00;1.53;;;10.10;99.90;;;;;;5031355;28;20442;-63
2024/02/05 06:03:41;;;;;;;1.87;1.77;;;10.10;99.90;;;;;;5031590;28;20450;-62
2024/02/05 06:06:09;;;;;;;3.33;1.60;;;10.00;99.90;;;;;;5031315;28;20549;-63
2024/02/05 06:08:36;;;;;;;2.13;1.53;;;10.00;99.90;;;;;;5031101;28;20478;-63
2024/02/05 06:11:03;;;;;;;2.10;1.90;;;10.00;99.90;;;;;;5030787;28;20489;-63
2024/02/05 06:13:31;;;;;;;1.63;1.47;;;10.00;99.90;;;;;;5031243;28;20458;-62
2024/02/05 06:15:57;;;;;;;1.63;1.53;;;10.00;99.90;;;;;;5031478;28;20461;-62
2024/02/05 06:18:24;;;;;;;1.50;1.37;;;9.90;99.90;;;;;;5031273;28;20482;-63
2024/02/05 06:20:51;;;;;;;2.57;2.17;;;10.00;99.90;;;;;;5030659;28;20446;-63
2024/02/05 06:23:19;;;;;;;2.17;2.03;;;9.90;99.90;;;;;;5031421;28;20533;-63
2024/02/05 06:25:46;;;;;;;1.80;1.70;;;9.90;99.90;;;;;;5031189;28;20456;-63
2024/02/05 06:28:13;;;;;;;2.07;1.97;;;9.90;99.90;;;;;;5030797;28;20449;-63
2024/02/05 06:30:43;;;;;;;1.57;1.47;;;9.90;99.90;;;;;;5030246;28;20493;-63
2024/02/05 06:33:10;;;;;;;1.47;1.37;;;9.90;99.90;;;;;;5030369;28;20553;-63
2024/02/05 06:35:36;;;;;;;3.03;1.73;;;9.90;99.90;;;;;;5030835;28;20446;-62
2024/02/05 06:38:04;;;;;;;2.90;2.07;;;9.90;99.90;;;;;;5030820;28;20449;-63
2024/02/05 06:40:34;;;;;;;1.40;1.30;;;9.90;99.90;;;;;;5030811;28;20454;-63
2024/02/05 06:43:01;;;;;;;2.13;1.93;;;9.90;99.90;;;;;;5030258;28;20456;-62
2024/02/05 06:45:28;;;;;;;2.97;1.77;;;9.90;99.90;;;;;;5030799;28;20927;-63
2024/02/05 06:47:57;;;;;;;1.90;1.80;;;9.90;99.90;;;;;;5030786;28;20450;-63
2024/02/05 06:50:24;;;;;;;4.00;2.43;;;9.90;99.90;;;;;;5031030;28;20635;-63
2024/02/05 06:52:50;;;;;;;2.00;1.57;;;9.90;99.90;;;;;;5030670;28;20458;-63
2024/02/05 06:55:18;;;;;;;3.80;1.93;;;9.80;99.90;;;;;;5030617;28;21000;-63
2024/02/05 06:57:46;;;;;;;3.87;2.90;;;9.80;99.90;;;;;;5030702;28;21079;-63
2024/02/05 07:00:13;;;;;;;2.40;2.30;;;9.80;99.90;;;;;;5030191;28;20474;-63
2024/02/05 07:02:40;;;;;;;2.10;2.00;;;9.80;99.90;;;;;;5029887;28;20540;-63
2024/02/05 07:05:10;;;;;;;2.70;2.50;;;9.90;99.90;;;;;;5030492;28;20484;-62
2024/02/05 07:07:37;;;;;;;2.03;1.90;;;9.80;99.90;;;;;;5030469;28;20523;-63
2024/02/05 07:10:05;;;;;;;3.53;2.20;;;9.90;99.90;;;;;;5030022;28;20470;-63
2024/02/05 07:12:31;;;;;;;2.07;1.67;;;9.90;99.90;;;;;;5029718;28;20584;-63
2024/02/05 07:15:00;;;;;;;3.03;2.20;;;9.80;99.90;;;;;;5030301;28;20922;-62
2024/02/05 07:17:32;;;;;;;2.57;2.40;;;9.80;99.90;;;;;;5030155;28;20449;-62
2024/02/05 07:20:01;;;;;;;2.37;2.10;;;9.90;99.90;;;;;;5029923;28;20480;-62
2024/02/05 07:22:28;;;;;;;2.30;2.03;;;9.90;99.90;;;;;;5029845;28;20450;-62
2024/02/05 07:24:55;;;;;;;5.20;2.37;;;9.90;99.90;;;;;;5030596;28;21358;-63
2024/02/05 07:27:24;;;;;;;3.70;3.03;;;9.90;99.90;;;;;;5030156;28;20681;-62
2024/02/05 07:29:51;;;;;;;5.47;3.10;;;9.90;99.90;;;;;;5029756;28;20513;-63
2024/02/05 07:32:19;;;;;;;3.47;2.17;;;9.80;99.90;;;;;;5029412;28;21008;-63
2024/02/05 07:34:47;;;;;;;6.00;3.10;;;9.80;99.90;;;;;;5030116;28;20953;-63
2024/02/05 07:37:14;;;;;;;6.97;4.20;;;9.80;99.90;;;;;;5029179;28;20541;-62
2024/02/05 07:39:40;;;;;;;2.27;1.83;;;9.80;99.90;;;;;;5029441;28;20466;-63
2024/02/05 07:42:07;;;;;;;5.10;2.83;;;9.90;99.90;;;;;;5029231;28;20551;-63
2024/02/05 07:44:34;;;;;;;27.60;6.10;;;9.90;99.90;;;;;;5029533;28;20492;-62
2024/02/05 07:47:01;;;;;;;2.23;1.60;;;9.90;99.90;;;;;;5029592;28;20452;-63
2024/02/05 07:49:30;;;;;;;4.17;2.40;;;9.80;99.90;;;;;;5029250;28;20466;-63
2024/02/05 07:51:56;;;;;;;3.57;2.13;;;9.90;99.90;;;;;;5029043;28;20492;-63
2024/02/05 07:54:25;;;;;;;2.57;2.40;;;9.90;99.90;;;;;;5029523;28;20981;-62
2024/02/05 07:56:52;;;;;;;3.23;2.00;;;9.90;99.90;;;;;;5029676;28;20453;-63
2024/02/05 07:59:19;;;;;;;2.23;2.10;;;9.90;99.90;;;;;;5029595;28;20474;-63
2024/02/05 08:01:46;;;;;;;3.53;2.50;;;9.90;99.90;;;;;;5029123;28;20970;-63
2024/02/05 08:04:13;;;;;;;3.60;2.87;;;9.90;99.90;;;;;;5029324;28;20454;-63
2024/02/05 08:06:41;;;;;;;2.60;2.30;;;9.90;99.90;;;;;;5029298;28;20455;-63
2024/02/05 08:09:08;;;;;;;13.63;4.37;;;9.90;99.90;;;;;;5028807;28;20472;-63
2024/02/05 08:11:35;;;;;;;4.00;2.43;;;9.90;99.90;;;;;;5028525;28;21017;-63
2024/02/05 08:14:03;;;;;;;5.30;2.90;;;9.90;99.90;;;;;;5029214;28;20456;-63
2024/02/05 08:16:30;;;;;;;2.90;2.00;;;10.00;99.90;;;;;;5029133;28;20456;-63
2024/02/05 08:18:57;;;;;;;3.83;2.10;;;10.00;99.90;;;;;;5028811;28;20976;-63
2024/02/05 08:21:23;;;;;;;5.80;2.40;;;9.90;99.90;;;;;;5028279;28;20511;-62
2024/02/05 08:23:52;;;;;;;7.23;2.40;;;10.00;99.90;;;;;;5029118;28;20863;-63
2024/02/05 08:26:19;;;;;;;5.03;2.83;;;9.90;99.90;;;;;;5029152;28;20833;-62
2024/02/05 08:28:46;;;;;;;2.83;2.50;;;9.90;99.90;;;;;;5028592;28;20480;-63
2024/02/05 08:31:13;;;;;;;3.13;2.40;;;10.00;99.90;;;;;;5028682;28;20489;-63
2024/02/05 08:33:40;;;;;;;3.83;2.80;;;10.00;99.90;;;;;;5028674;28;20449;-63
2024/02/05 08:36:07;;;;;;;11.17;3.20;;;10.00;99.90;;;;;;5028908;28;20544;-64
2024/02/05 08:38:34;;;;;;;6.30;2.97;;;10.00;99.90;;;;;;5028052;28;20480;-62
2024/02/05 08:41:02;;;;;;;3.33;3.03;;;10.00;99.90;;;;;;5027570;28;20454;-63
2024/02/05 08:43:29;;;;;;;3.00;2.80;;;10.00;99.90;;;;;;5028749;28;20917;-63
2024/02/05 08:45:56;;;;;;;2.90;2.50;;;10.00;99.90;;;;;;5028002;28;20457;-62
2024/02/05 08:48:22;;;;;;;5.07;3.43;;;10.10;99.90;;;;;;5028204;28;20505;-63
2024/02/05 08:50:49;;;;;;;4.87;2.33;;;10.10;99.90;;;;;;5027859;28;20446;-63
2024/02/05 08:53:16;;;;;;;2.90;2.67;;;10.10;99.90;;;;;;5017987;28;20471;-63
2024/02/05 08:55:44;;;;;;;8.17;5.33;;;10.10;99.90;;;;;;5013261;28;20445;-63
2024/02/05 08:58:12;;;;;;;3.30;3.00;;;10.10;99.90;;;;;;5025823;28;20538;-63
2024/02/05 09:00:39;;;;;;;2.80;2.50;;;10.10;99.90;;;;;;5025034;28;20460;-62
2024/02/05 09:03:06;;;;;;;5.60;3.10;;;10.10;99.90;;;;;;5012154;28;20978;-63
2024/02/05 09:05:33;;;;;;;4.10;2.43;;;10.10;99.90;;;;;;5028354;28;20454;-63
2024/02/05 09:08:00;;;;;;;3.93;2.87;;;10.20;99.90;;;;;;5019090;28;20447;-63
2024/02/05 09:10:27;;;;;;;4.60;3.40;;;10.20;99.90;;;;;;5021943;28;20523;-63
2024/02/05 09:12:54;;;;;;;6.57;4.50;;;10.20;99.90;;;;;;5027049;28;20490;-63
2024/02/05 09:15:22;;;;;;;3.63;3.30;;;10.20;99.90;;;;;;5027698;28;20461;-62
2024/02/05 09:17:50;;;;;;;2.53;2.37;;;10.20;99.90;;;;;;5027597;28;20456;-63
2024/02/05 09:20:16;;;;;;;66.33;13.60;;;10.20;99.90;;;;;;5027454;28;20493;-62
2024/02/05 09:22:47;;;;;;;4.50;3.00;;;10.20;99.90;;;;;;5012196;28;20461;-63
2024/02/05 09:25:14;;;;;;;2.97;2.77;;;10.20;99.90;;;;;;5022012;28;21049;-63
2024/02/05 09:27:41;;;;;;;6.03;3.90;;;10.20;99.90;;;;;;5027868;28;20445;-62
2024/02/05 09:30:08;;;;;;;4.90;3.47;;;10.20;99.90;;;;;;5040007;22;20603;-58
2024/02/05 09:32:37;;;;;;;4.67;3.50;;;10.20;99.90;;;;;;5026478;28;20485;-60
2024/02/05 09:35:04;;;;;;;5.70;4.37;;;10.20;99.90;;;;;;5010002;28;20462;-60
2024/02/05 09:37:31;;;;;;;5.37;3.40;;;10.20;99.90;;;;;;5021685;28;20464;-60
2024/02/05 09:39:58;;;;;;;5.37;3.33;;;10.20;99.90;;;;;;5009853;28;21008;-60
2024/02/05 09:42:26;;;;;;;2.33;2.10;;;10.30;99.90;;;;;;5004150;28;20459;-61
2024/02/05 09:44:55;;;;;;;3.10;2.77;;;10.30;99.90;;;;;;5007025;28;20537;-60
2024/02/05 09:47:23;;;;;;;3.30;3.10;;;10.30;99.90;;;;;;5008228;28;20570;-60
2024/02/05 09:49:57;;;;;;;7.80;3.73;;;10.30;99.90;;;;;;5011269;28;20894;-60
2024/02/05 09:52:25;;;;;;;6.90;3.17;;;10.30;99.90;;;;;;5009189;28;21357;-60
2024/02/05 09:54:54;;;;;;;3.77;3.00;;;10.30;99.90;;;;;;5007554;28;20450;-59
2024/02/05 09:57:24;;;;;;;3.07;2.77;;;10.30;99.90;;;;;;5007939;28;20466;-58
2024/02/05 09:59:51;;;;;;;4.60;3.17;;;10.30;99.90;;;;;;5012103;28;20532;-61
2024/02/05 10:02:19;;;;;;;3.30;3.00;;;10.30;99.90;;;;;;5011204;28;20454;-59
2024/02/05 10:04:50;;;;;;;7.50;4.17;;;10.30;99.90;;;;;;5003331;28;20458;-59
2024/02/05 10:07:20;;;;;;;4.33;3.10;;;10.30;99.90;;;;;;5003004;28;20451;-59
2024/02/05 10:09:47;;;;;;;3.53;3.23;;;10.30;99.90;;;;;;5012378;28;21004;-61
2024/02/05 10:12:14;;;;;;;3.43;2.77;;;10.30;99.90;;;;;;5013233;28;20482;-60
2024/02/05 10:14:42;;;;;;;4.77;3.50;;;10.40;99.90;;;;;;5011602;28;20509;-61
2024/02/05 10:17:09;;;;;;;6.17;2.83;;;10.40;99.90;;;;;;5010784;28;20447;-56
2024/02/05 10:19:36;;;;;;;8.87;3.50;;;10.40;99.90;;;;;;5013420;28;20458;-60
2024/02/05 10:22:04;;;;;;;4.40;3.00;;;10.40;99.90;;;;;;5012092;28;20442;-59
2024/02/05 10:24:35;;;;;;;3.60;3.30;;;10.40;99.90;;;;;;5015063;28;20450;-60
2024/02/05 10:27:01;;;;;;;5.00;3.23;;;10.50;99.90;;;;;;5010565;28;20439;-60
2024/02/05 10:29:28;;;;;;;4.33;2.80;;;10.50;99.90;;;;;;5009790;28;20508;-61
2024/02/05 10:31:58;;;;;;;3.40;2.80;;;10.50;99.90;;;;;;5010167;28;20488;-57
2024/02/05 10:34:25;;;;;;;3.80;3.00;;;10.60;99.90;;;;;;5010369;28;20477;-60
2024/02/05 10:36:53;;;;;;;4.70;3.50;;;10.60;99.90;;;;;;5010397;28;20450;-61
2024/02/05 10:39:22;;;;;;;6.33;3.60;;;10.60;99.90;;;;;;5010203;28;21375;-57
2024/02/05 10:41:51;;;;;;;5.33;3.07;;;10.70;99.90;;;;;;5009911;28;20895;-61
2024/02/05 10:44:18;;;;;;;3.23;2.90;;;10.80;99.90;;;;;;5013146;28;20469;-61
2024/02/05 10:46:49;;;;;;;5.10;4.60;;;10.80;99.90;;;;;;5006434;28;20458;-62
2024/02/05 10:49:16;;;;;;;5.50;4.30;;;10.90;99.90;;;;;;5009787;28;20510;-59
2024/02/05 10:51:44;;;;;;;4.20;3.07;;;10.90;99.90;;;;;;5009630;28;20493;-61
2024/02/05 10:54:12;;;;;;;3.40;2.50;;;10.90;99.90;;;;;;5009969;28;20451;-60
2024/02/05 10:56:40;;;;;;;4.70;3.03;;;11.00;99.90;;;;;;5010208;28;20573;-61
2024/02/05 10:59:09;;;;;;;6.47;3.30;;;11.00;99.90;;;;;;5010022;28;20834;-61
2024/02/05 11:01:42;;;;;;;7.20;4.20;;;11.00;99.90;;;;;;5009627;28;20829;-60
2024/02/05 11:04:10;;;;;;;5.03;3.53;;;11.10;99.90;;;;;;5009809;28;20456;-61
2024/02/05 11:06:39;;;;;;;7.40;3.53;;;11.00;99.90;;;;;;5011478;28;20546;-61
2024/02/05 11:09:10;;;;;;;6.20;3.13;;;11.00;99.90;;;;;;5012921;28;20465;-61
2024/02/05 11:11:38;;;;;;;7.60;4.07;;;11.00;99.90;;;;;;5007509;28;20463;-61
2024/02/05 11:14:08;;;;;;;4.57;3.40;;;11.00;99.90;;;;;;5009566;28;20816;-61
2024/02/05 11:16:38;;;;;;;3.67;3.37;;;11.00;99.90;;;;;;5008840;28;20505;-61
2024/02/05 11:19:08;;;;;;;5.83;4.27;;;11.10;99.90;;;;;;5008296;28;20467;-60
2024/02/05 11:21:44;;;;;;;3.93;2.70;;;11.10;99.90;;;;;;5012481;28;20508;-60
2024/02/05 11:24:14;;;;;;;3.17;2.90;;;11.20;99.90;;;;;;5001380;28;20497;-60
2024/02/05 11:26:42;;;;;;;4.50;3.40;;;11.30;99.90;;;;;;5009189;28;20454;-61
2024/02/05 11:29:09;;;;;;;5.00;4.50;;;11.30;99.90;;;;;;5008894;28;20482;-62
2024/02/05 11:31:39;;;;;;;4.20;3.53;;;11.40;99.90;;;;;;5004467;28;20477;-60
2024/02/05 11:34:08;;;;;;;4.80;3.20;;;11.40;99.90;;;;;;5008489;28;20545;-60
2024/02/05 11:36:35;;;;;;;5.40;3.30;;;11.40;99.90;;;;;;5008836;28;21010;-61
2024/02/05 11:39:06;;;;;;;3.17;2.87;;;11.40;99.90;;;;;;5008474;28;20474;-61
2024/02/05 11:41:34;;;;;;;130.23;29.57;;;11.40;99.90;;;;;;5003557;28;20968;-60
2024/02/05 11:44:11;;;;;;;5.53;4.10;;;11.40;99.90;;;;;;5008833;28;20942;-62
2024/02/05 11:46:39;;;;;;;5.23;4.47;;;11.40;99.90;;;;;;5008461;28;20530;-61
2024/02/05 11:49:06;;;;;;;7.13;3.20;;;11.50;99.90;;;;;;5008467;28;20553;-62
2024/02/05 11:51:33;;;;;;;3.43;3.00;;;11.50;99.90;;;;;;5007832;28;20535;-60
2024/02/05 11:54:00;;;;;;;6.03;3.23;;;11.60;99.90;;;;;;5008699;28;20496;-60
2024/02/05 11:56:27;;;;;;;5.43;3.50;;;11.60;99.90;;;;;;5008452;28;20450;-61
2024/02/05 11:58:54;;;;;;;4.00;3.13;;;11.60;99.90;;;;;;5009455;28;20576;-61
2024/02/05 12:01:22;;;;;;;5.67;3.00;;;11.70;99.90;;;;;;5007805;28;20887;-60
2024/02/05 12:03:52;;;;;;;3.30;2.97;;;11.70;99.90;;;;;;5008713;28;20526;-61
2024/02/05 12:06:20;;;;;;;5.93;3.00;;;11.60;99.90;;;;;;5008545;28;20469;-60
2024/02/05 12:08:47;;;;;;;5.27;4.83;;;11.60;99.90;;;;;;5008168;28;20446;-59
2024/02/05 12:11:14;;;;;;;4.57;3.80;;;11.50;99.90;;;;;;5007812;28;20450;-59
2024/02/05 12:13:41;;;;;;;6.80;2.60;;;11.60;99.90;;;;;;5008319;28;20490;-61
2024/02/05 12:16:09;;;;;;;3.70;3.30;;;11.50;99.90;;;;;;5008607;28;20451;-62
2024/02/05 12:18:36;;;;;;;4.67;3.80;;;11.50;99.90;;;;;;5008116;28;20533;-61
2024/02/05 12:21:06;;;;;;;30.17;7.10;;;11.40;99.90;;;;;;5007974;28;20962;-61
2024/02/05 12:23:33;;;;;;;6.73;2.97;;;11.40;99.90;;;;;;4992553;28;20439;-60
2024/02/05 12:26:01;;;;;;;20.53;8.07;;;11.50;99.90;;;;;;5008300;28;20457;-61
2024/02/05 12:28:29;;;;;;;11.70;5.03;;;11.50;99.90;;;;;;5007797;28;20454;-61
2024/02/05 12:30:57;;;;;;;3.83;2.30;;;11.50;99.90;;;;;;5007277;28;20477;-61
2024/02/05 12:33:25;;;;;;;5.47;3.70;;;11.60;99.90;;;;;;5008084;28;20875;-60
2024/02/05 12:36:02;;;;;;;3.60;3.07;;;11.50;99.90;;;;;;5008162;28;20911;-60
2024/02/05 12:38:30;;;;;;;6.30;3.40;;;11.60;99.90;;;;;;5007771;28;21232;-59
2024/02/05 12:40:59;;;;;;;3.13;2.77;;;11.60;99.90;;;;;;5007677;28;20989;-61
2024/02/05 12:43:29;;;;;;;3.40;2.60;;;11.60;99.90;;;;;;5007548;28;20435;-59
2024/02/05 12:45:56;;;;;;;5.60;3.03;;;11.60;99.90;;;;;;5007938;28;20969;-61
2024/02/05 12:48:25;;;;;;;4.80;2.90;;;11.50;99.90;;;;;;5006903;28;20451;-60
2024/02/05 12:50:53;;;;;;;2.93;2.73;;;11.40;99.90;;;;;;5007129;28;20475;-61
2024/02/05 12:53:20;;;;;;;3.70;3.10;;;11.40;99.90;;;;;;5007758;28;20486;-60